Time;durP1;ratioP1;P1;durP2;ratioP2;P2;SDS_P1;SDS_P2;PMS_P1;PMS_P2;Temp;Humidity;BMP_temperature;BMP_pressure;BME280_temperature;BME280_humidity;BME280_pressure;Samples;Min_cycle;Max_cycle;Signal;HPM_P1;HPM_P2
2023/07/21 00:01:22;;;;;;;9.77;8.50;;;15.70;99.90;;;;;;5033195;28;20475;-69
2023/07/21 00:03:48;;;;;;;11.98;9.40;;;15.60;99.90;;;;;;5033231;28;20037;-67
2023/07/21 00:06:17;;;;;;;10.20;9.20;;;15.70;99.90;;;;;;5033184;28;20036;-72
2023/07/21 00:08:43;;;;;;;9.98;8.98;;;15.60;99.90;;;;;;5032964;28;20052;-72
2023/07/21 00:11:09;;;;;;;11.07;9.70;;;15.60;99.90;;;;;;5037143;28;20021;-72
2023/07/21 00:13:35;;;;;;;13.57;9.98;;;15.60;99.90;;;;;;5037157;28;20387;-72
2023/07/21 00:16:03;;;;;;;15.35;9.82;;;15.50;99.90;;;;;;5037118;28;20071;-72
2023/07/21 00:18:30;;;;;;;11.30;9.75;;;15.50;99.90;;;;;;5036798;28;20048;-72
2023/07/21 00:20:55;;;;;;;10.90;9.68;;;15.50;99.90;;;;;;5037187;28;20029;-72
2023/07/21 00:23:23;;;;;;;12.27;10.35;;;15.50;99.90;;;;;;5036987;28;20116;-72
2023/07/21 00:25:50;;;;;;;13.63;10.38;;;15.40;99.90;;;;;;5036513;28;20029;-71
2023/07/21 00:28:17;;;;;;;12.70;9.38;;;15.40;99.90;;;;;;5036804;28;20036;-71
2023/07/21 00:30:45;;;;;;;13.38;10.27;;;15.50;99.90;;;;;;5036490;28;20388;-72
2023/07/21 00:33:11;;;;;;;14.20;10.40;;;15.50;99.90;;;;;;5036679;28;20052;-72
2023/07/21 00:35:36;;;;;;;11.70;10.35;;;15.50;99.90;;;;;;5036786;28;20029;-72
2023/07/21 00:38:03;;;;;;;11.98;10.13;;;15.50;99.90;;;;;;5036770;28;20029;-72
2023/07/21 00:40:30;;;;;;;13.45;10.05;;;15.50;99.90;;;;;;5036793;28;20491;-71
2023/07/21 00:42:57;;;;;;;12.38;9.38;;;15.50;99.90;;;;;;5036663;28;20171;-72
2023/07/21 00:45:23;;;;;;;11.15;9.88;;;15.50;99.90;;;;;;5036637;28;20038;-70
2023/07/21 00:47:49;;;;;;;10.77;9.68;;;15.50;99.90;;;;;;5036174;28;20124;-72
2023/07/21 00:50:16;;;;;;;10.07;9.15;;;15.50;99.90;;;;;;5036498;28;20479;-72
2023/07/21 00:52:42;;;;;;;10.15;8.50;;;15.50;99.90;;;;;;5036576;28;20028;-71
2023/07/21 00:55:09;;;;;;;11.80;8.75;;;15.40;99.90;;;;;;5036316;28;20476;-72
2023/07/21 00:57:35;;;;;;;10.20;9.00;;;15.30;99.90;;;;;;5036326;28;20022;-71
2023/07/21 01:00:06;;;;;;;10.20;7.40;;;15.40;99.90;;;;;;5036032;28;20029;-72
2023/07/21 01:02:32;;;;;;;12.15;8.48;;;15.30;99.90;;;;;;5036128;28;20034;-72
2023/07/21 01:05:01;;;;;;;10.13;8.82;;;15.30;99.90;;;;;;5035941;28;20053;-72
2023/07/21 01:07:28;;;;;;;10.48;8.90;;;15.30;99.90;;;;;;5036142;28;20414;-72
2023/07/21 01:09:54;;;;;;;11.27;8.70;;;15.10;99.90;;;;;;5036042;28;20034;-71
2023/07/21 01:12:20;;;;;;;10.40;9.00;;;15.10;99.90;;;;;;5035652;28;20079;-72
2023/07/21 01:14:46;;;;;;;10.80;9.70;;;15.00;99.90;;;;;;5035821;28;20120;-71
2023/07/21 01:17:14;;;;;;;9.90;9.00;;;14.90;99.90;;;;;;5036110;28;20036;-71
2023/07/21 01:19:41;;;;;;;11.20;10.10;;;14.80;99.90;;;;;;5035277;28;20187;-71
2023/07/21 01:22:11;;;;;;;12.27;10.30;;;14.80;99.90;;;;;;5035512;28;20025;-72
2023/07/21 01:24:59;;;;;;;13.63;10.55;;;14.70;99.90;;;;;;5035897;28;20387;-72
2023/07/21 01:27:25;;;;;;;14.30;11.13;;;14.70;99.90;;;;;;5035982;28;20040;-71
2023/07/21 01:29:52;;;;;;;14.50;11.13;;;14.70;99.90;;;;;;5035815;28;20025;-71
2023/07/21 01:32:21;;;;;;;16.55;11.55;;;14.60;99.90;;;;;;5035547;28;20022;-72
2023/07/21 01:34:47;;;;;;;15.20;11.90;;;14.60;99.90;;;;;;5035608;28;20033;-71
2023/07/21 01:37:15;;;;;;;15.13;13.52;;;14.50;99.90;;;;;;5035643;28;20032;-71
2023/07/21 01:39:41;;;;;;;16.02;14.32;;;14.50;99.90;;;;;;5035584;28;20034;-71
2023/07/21 01:42:08;;;;;;;19.65;13.55;;;14.40;99.90;;;;;;5035552;28;20491;-71
2023/07/21 01:44:34;;;;;;;17.70;15.38;;;14.40;99.90;;;;;;5035401;28;20060;-71
2023/07/21 01:47:00;;;;;;;17.38;14.52;;;14.30;99.90;;;;;;5035497;28;20079;-71
2023/07/21 01:49:25;;;;;;;17.40;15.60;;;14.30;99.90;;;;;;5034854;28;20053;-71
2023/07/21 01:51:56;;;;;;;18.50;15.55;;;14.20;99.90;;;;;;5035371;28;20068;-71
2023/07/21 01:54:31;;;;;;;19.85;16.85;;;14.10;99.90;;;;;;5035246;28;20080;-71
2023/07/21 01:57:02;;;;;;;21.20;17.25;;;14.10;99.90;;;;;;5034916;28;20495;-72
2023/07/21 01:59:27;;;;;;;22.52;18.88;;;14.10;99.90;;;;;;5035226;28;20491;-71
2023/07/21 02:01:55;;;;;;;22.90;18.58;;;14.00;99.90;;;;;;5034810;28;20080;-71
2023/07/21 02:04:21;;;;;;;24.23;18.67;;;14.00;99.90;;;;;;5034695;28;20086;-70
2023/07/21 02:06:47;;;;;;;19.73;17.63;;;13.90;99.90;;;;;;5035013;28;20032;-71
2023/07/21 02:09:13;;;;;;;18.17;16.30;;;13.90;99.90;;;;;;5034702;28;20038;-71
2023/07/21 02:11:40;;;;;;;19.55;16.13;;;13.90;99.90;;;;;;5035048;28;20391;-71
2023/07/21 02:14:06;;;;;;;16.55;14.32;;;13.80;99.90;;;;;;5034969;28;20034;-71
2023/07/21 02:16:32;;;;;;;15.35;12.80;;;13.80;99.90;;;;;;5034953;28;20372;-71
2023/07/21 02:18:57;;;;;;;16.20;13.45;;;13.90;99.90;;;;;;5034974;28;20033;-71
2023/07/21 02:21:23;;;;;;;17.58;15.27;;;13.90;99.90;;;;;;5034769;28;20029;-71
2023/07/21 02:23:49;;;;;;;17.00;13.75;;;13.90;99.90;;;;;;5034707;28;20025;-71
2023/07/21 02:26:14;;;;;;;17.42;15.23;;;13.90;99.90;;;;;;5034733;28;20030;-71
2023/07/21 02:28:41;;;;;;;19.85;14.70;;;13.90;99.90;;;;;;5034496;28;20458;-71
2023/07/21 02:31:06;;;;;;;16.30;13.52;;;13.90;99.90;;;;;;5034269;28;20025;-71
2023/07/21 02:33:33;;;;;;;18.33;14.00;;;13.90;99.90;;;;;;5033824;28;20471;-72
2023/07/21 02:36:00;;;;;;;15.50;13.88;;;13.90;99.90;;;;;;5034620;28;20057;-71
2023/07/21 02:38:27;;;;;;;16.92;14.23;;;13.90;99.90;;;;;;5034496;28;20029;-71
2023/07/21 02:40:53;;;;;;;15.90;13.90;;;13.80;99.90;;;;;;5034460;28;20079;-71
2023/07/21 02:43:19;;;;;;;16.17;13.63;;;13.90;99.90;;;;;;5034461;28;20029;-71
2023/07/21 02:45:52;;;;;;;14.20;12.63;;;13.90;99.90;;;;;;5034259;28;20400;-71
2023/07/21 02:48:19;;;;;;;17.98;15.05;;;13.90;99.90;;;;;;5033835;28;20120;-71
2023/07/21 02:50:48;;;;;;;15.10;12.95;;;13.90;99.90;;;;;;5034424;28;20491;-71
2023/07/21 02:53:14;;;;;;;15.50;13.68;;;13.80;99.90;;;;;;5034210;28;20030;-71
2023/07/21 02:55:40;;;;;;;18.90;15.05;;;13.90;99.90;;;;;;5034176;28;20171;-71
2023/07/21 02:58:07;;;;;;;20.33;16.40;;;13.80;99.90;;;;;;5033729;28;20470;-70
2023/07/21 03:00:32;;;;;;;18.85;14.50;;;13.80;99.90;;;;;;5033715;28;20490;-71
2023/07/21 03:02:58;;;;;;;15.15;13.10;;;13.80;99.90;;;;;;5033754;28;20026;-70
2023/07/21 03:05:24;;;;;;;15.07;13.02;;;13.70;99.90;;;;;;5033896;28;20467;-71
2023/07/21 03:07:49;;;;;;;16.92;14.55;;;13.80;99.90;;;;;;5033824;28;20072;-71
2023/07/21 03:10:16;;;;;;;20.08;16.35;;;13.70;99.90;;;;;;5033991;28;20033;-71
2023/07/21 03:12:42;;;;;;;18.73;15.23;;;13.70;99.90;;;;;;5033851;28;20025;-71
2023/07/21 03:15:08;;;;;;;18.67;14.82;;;13.70;99.90;;;;;;5033909;28;20080;-71
2023/07/21 03:17:33;;;;;;;22.33;16.70;;;13.70;99.90;;;;;;5033471;28;20025;-71
2023/07/21 03:19:59;;;;;;;25.15;18.63;;;13.70;99.90;;;;;;5033680;28;20036;-71
2023/07/21 03:22:25;;;;;;;18.25;16.20;;;13.70;99.90;;;;;;5033285;28;20068;-71
2023/07/21 03:24:50;;;;;;;19.80;16.52;;;13.70;99.90;;;;;;5033604;28;20029;-71
2023/07/21 03:27:16;;;;;;;17.65;15.70;;;13.70;99.90;;;;;;5033614;28;20074;-71
2023/07/21 03:29:42;;;;;;;18.58;15.65;;;13.70;99.90;;;;;;5033635;28;20056;-71
2023/07/21 03:32:08;;;;;;;18.70;14.48;;;13.70;99.90;;;;;;5033841;28;20032;-71
2023/07/21 03:34:35;;;;;;;15.85;13.80;;;13.70;99.90;;;;;;5033529;28;20392;-71
2023/07/21 03:37:08;;;;;;;23.10;18.73;;;13.80;99.90;;;;;;5033491;28;20028;-71
2023/07/21 03:39:33;;;;;;;22.92;18.48;;;13.80;99.90;;;;;;5033492;28;20025;-71
2023/07/21 03:41:59;;;;;;;22.23;18.02;;;13.70;99.90;;;;;;5033567;28;20045;-71
2023/07/21 03:44:24;;;;;;;25.58;18.80;;;13.80;99.90;;;;;;5033119;28;20036;-71
2023/07/21 03:46:50;;;;;;;18.58;16.38;;;13.70;99.90;;;;;;5033398;28;20479;-71
2023/07/21 03:49:15;;;;;;;21.48;16.48;;;13.70;99.90;;;;;;5032885;28;20407;-71
2023/07/21 03:51:41;;;;;;;18.10;15.90;;;13.70;99.90;;;;;;5033244;28;20021;-71
2023/07/21 03:54:07;;;;;;;18.58;15.60;;;13.70;99.90;;;;;;5033370;28;20041;-71
2023/07/21 03:56:33;;;;;;;19.13;16.67;;;13.60;99.90;;;;;;5033432;28;20491;-71
2023/07/21 03:58:58;;;;;;;21.50;15.75;;;13.60;99.90;;;;;;5013552;28;20030;-71
2023/07/21 04:01:24;;;;;;;20.33;15.02;;;13.60;99.90;;;;;;5013662;28;20555;-71
2023/07/21 04:03:50;;;;;;;19.10;15.80;;;13.60;99.90;;;;;;5013566;28;20033;-70
2023/07/21 04:06:18;;;;;;;16.90;14.40;;;13.70;99.90;;;;;;5013250;28;20029;-70
2023/07/21 04:08:43;;;;;;;16.40;13.88;;;13.80;99.90;;;;;;5013049;28;20061;-71
2023/07/21 04:11:09;;;;;;;21.35;16.73;;;13.80;99.90;;;;;;5013545;28;20061;-71
2023/07/21 04:13:34;;;;;;;22.05;17.23;;;13.90;99.90;;;;;;5013567;28;20029;-71
2023/07/21 04:16:00;;;;;;;24.83;16.85;;;13.90;99.90;;;;;;5013048;28;20014;-71
2023/07/21 04:18:25;;;;;;;18.10;15.20;;;13.90;99.90;;;;;;5013027;28;20029;-71
2023/07/21 04:20:51;;;;;;;19.70;15.43;;;13.90;99.90;;;;;;5013486;28;20369;-71
2023/07/21 04:23:18;;;;;;;23.02;18.05;;;13.90;99.90;;;;;;5013441;28;20030;-71
2023/07/21 04:25:45;;;;;;;25.08;18.35;;;13.90;99.90;;;;;;5013447;28;20034;-71
2023/07/21 04:28:10;;;;;;;24.48;19.75;;;13.90;99.90;;;;;;5013111;28;20140;-71
2023/07/21 04:30:36;;;;;;;20.17;17.92;;;13.90;99.90;;;;;;5013460;28;20113;-71
2023/07/21 04:33:01;;;;;;;19.92;17.10;;;14.00;99.90;;;;;;5012772;28;20022;-71
2023/07/21 04:35:27;;;;;;;17.75;15.85;;;14.10;99.90;;;;;;5012963;28;20026;-71
2023/07/21 04:37:52;;;;;;;18.67;15.40;;;14.20;99.90;;;;;;5013303;28;20122;-71
2023/07/21 04:40:20;;;;;;;18.05;13.75;;;14.30;99.90;;;;;;5013249;28;20030;-71
2023/07/21 04:42:46;;;;;;;18.05;16.10;;;14.40;99.90;;;;;;5012746;28;20022;-71
2023/07/21 04:45:11;;;;;;;17.88;15.95;;;14.50;99.90;;;;;;5013112;28;20117;-71
2023/07/21 04:47:39;;;;;;;20.92;16.55;;;14.60;99.90;;;;;;5012429;28;20484;-71
2023/07/21 04:50:05;;;;;;;19.20;15.85;;;14.80;99.90;;;;;;5013207;28;20029;-72
2023/07/21 04:52:31;;;;;;;17.25;15.45;;;14.90;99.90;;;;;;5012904;28;20052;-71
2023/07/21 04:54:56;;;;;;;17.00;14.90;;;15.00;99.90;;;;;;5012880;28;20022;-72
2023/07/21 04:57:22;;;;;;;16.27;14.57;;;15.10;99.90;;;;;;5016288;28;20160;-72
2023/07/21 04:59:47;;;;;;;15.52;13.93;;;15.30;99.90;;;;;;5016238;28;20026;-72
2023/07/21 05:02:13;;;;;;;12.23;11.02;;;16.10;99.90;;;;;;5016482;28;20545;-72
2023/07/21 05:04:38;;;;;;;12.07;10.38;;;16.70;99.90;;;;;;5016352;28;20040;-72
2023/07/21 05:07:05;;;;;;;12.20;9.13;;;17.00;99.90;;;;;;5016368;28;20026;-72
2023/07/21 05:09:31;;;;;;;10.20;9.20;;;17.20;99.90;;;;;;5016260;28;20567;-72
2023/07/21 05:11:57;;;;;;;10.95;9.25;;;17.40;99.90;;;;;;5016340;28;20120;-72
2023/07/21 05:14:22;;;;;;;11.45;9.43;;;17.30;99.90;;;;;;5015853;28;20468;-72
2023/07/21 05:16:49;;;;;;;12.38;10.30;;;17.10;99.90;;;;;;5016161;28;20427;-72
2023/07/21 05:19:14;;;;;;;10.55;9.45;;;17.10;99.90;;;;;;5016268;28;20099;-72
2023/07/21 05:21:40;;;;;;;14.13;10.15;;;17.00;99.90;;;;;;5016219;28;20472;-72
2023/07/21 05:24:05;;;;;;;12.20;10.77;;;16.90;99.90;;;;;;5016170;28;20034;-72
2023/07/21 05:26:35;;;;;;;10.88;9.88;;;16.90;99.90;;;;;;5015862;28;20468;-72
2023/07/21 05:29:01;;;;;;;14.57;11.68;;;17.00;99.90;;;;;;5015795;28;20026;-72
2023/07/21 05:31:28;;;;;;;13.52;11.38;;;17.00;99.90;;;;;;5016006;28;20498;-72
2023/07/21 05:33:53;;;;;;;12.18;10.73;;;17.10;99.90;;;;;;5015968;28;20472;-72
2023/07/21 05:36:19;;;;;;;14.07;10.38;;;17.20;99.90;;;;;;5015911;28;20071;-72
2023/07/21 05:38:44;;;;;;;17.67;11.77;;;17.50;99.90;;;;;;5015944;28;20499;-72
2023/07/21 05:41:10;;;;;;;14.68;10.85;;;17.60;99.90;;;;;;5015580;28;20030;-72
2023/07/21 05:43:36;;;;;;;18.92;13.80;;;17.30;99.90;;;;;;5015854;28;20045;-72
2023/07/21 05:46:03;;;;;;;16.88;12.82;;;17.10;99.90;;;;;;5015446;28;20033;-72
2023/07/21 05:48:28;;;;;;;19.48;14.77;;;17.20;99.90;;;;;;5015486;28;20054;-72
2023/07/21 05:50:55;;;;;;;21.15;15.93;;;17.20;99.90;;;;;;5015564;28;20041;-72
2023/07/21 05:53:20;;;;;;;20.80;16.20;;;17.40;99.90;;;;;;5015504;28;20427;-72
2023/07/21 05:55:46;;;;;;;20.77;16.80;;;17.70;99.90;;;;;;5015444;28;20080;-72
2023/07/21 05:58:12;;;;;;;22.38;16.77;;;17.80;99.90;;;;;;5014024;28;20021;-72
2023/07/21 06:00:39;;;;;;;17.15;15.43;;;17.90;92.20;;;;;;5014685;28;20120;-72
2023/07/21 06:03:05;;;;;;;15.52;13.75;;;17.90;93.00;;;;;;5014348;28;20025;-72
2023/07/21 06:05:30;;;;;;;17.48;14.63;;;18.30;64.90;;;;;;5015092;28;20038;-72
2023/07/21 06:07:56;;;;;;;17.08;15.25;;;18.30;52.80;;;;;;5014527;28;20499;-72
2023/07/21 06:10:22;;;;;;;16.05;14.38;;;18.20;71.20;;;;;;5014743;28;20030;-72
2023/07/21 06:12:48;;;;;;;21.95;15.85;;;18.50;52.10;;;;;;5015053;28;20034;-73
2023/07/21 06:15:14;;;;;;;18.08;16.02;;;19.10;41.70;;;;;;5014561;28;20055;-72
2023/07/21 06:17:40;;;;;;;21.30;17.15;;;19.60;1.00;;;;;;5015094;28;20116;-73
2023/07/21 06:20:07;;;;;;;17.77;15.57;;;19.40;1.00;;;;;;5014752;28;20033;-71
2023/07/21 06:22:33;;;;;;;20.90;15.95;;;19.90;1.00;;;;;;5014428;28;20049;-71
2023/07/21 06:24:59;;;;;;;20.27;17.23;;;19.80;1.00;;;;;;5014459;28;20424;-71
2023/07/21 06:27:25;;;;;;;18.65;16.27;;;20.00;1.00;;;;;;5012975;28;20026;-71
2023/07/21 06:29:50;;;;;;;18.08;15.88;;;20.20;1.00;;;;;;5013766;28;20038;-73
2023/07/21 06:32:16;;;;;;;19.85;17.88;;;20.20;1.00;;;;;;4997358;28;20022;-72
2023/07/21 06:34:41;;;;;;;20.67;17.17;;;20.10;1.00;;;;;;5007139;28;20120;-73
2023/07/21 06:37:07;;;;;;;20.60;15.93;;;20.20;1.00;;;;;;5014403;28;20045;-73
2023/07/21 06:39:33;;;;;;;17.75;15.93;;;20.40;1.00;;;;;;5014327;28;20030;-73
2023/07/21 06:41:59;;;;;;;16.13;14.43;;;20.10;1.00;;;;;;5013624;28;20026;-73
2023/07/21 06:44:24;;;;;;;17.25;13.55;;;20.70;1.00;;;;;;5014424;28;20080;-72
2023/07/21 06:46:52;;;;;;;17.10;13.07;;;21.60;1.00;;;;;;5014435;28;20022;-73
2023/07/21 06:49:17;;;;;;;15.07;11.85;;;21.90;99.90;;;;;;5014102;28;20042;-74
2023/07/21 06:51:43;;;;;;;16.77;12.23;;;22.50;99.90;;;;;;5014459;28;20030;-72
2023/07/21 06:54:09;;;;;;;13.45;12.05;;;22.20;99.90;;;;;;4999160;28;20030;-72
2023/07/21 06:56:35;;;;;;;13.27;11.35;;;22.60;99.90;;;;;;4994411;28;20397;-72
2023/07/21 06:59:01;;;;;;;14.48;12.57;;;22.80;1.00;;;;;;5001422;28;20029;-70
2023/07/21 07:01:26;;;;;;;15.60;12.65;;;22.60;1.00;;;;;;5013591;28;20116;-72
2023/07/21 07:03:53;;;;;;;14.85;13.15;;;22.50;1.00;;;;;;5013774;28;20057;-72
2023/07/21 07:06:18;;;;;;;16.33;14.35;;;22.10;99.90;;;;;;5014235;28;20026;-72
2023/07/21 07:08:44;;;;;;;20.80;13.57;;;21.50;96.10;;;;;;5014066;28;20040;-72
2023/07/21 07:11:11;;;;;;;16.80;12.95;;;21.80;99.90;;;;;;5014321;28;20032;-72
2023/07/21 07:13:37;;;;;;;13.32;11.98;;;22.50;99.90;;;;;;5005026;28;20032;-72
2023/07/21 07:16:03;;;;;;;13.82;11.38;;;23.30;99.90;;;;;;5013429;28;20034;-73
2023/07/21 07:18:28;;;;;;;12.65;11.32;;;23.90;99.90;;;;;;4994971;28;20436;-73
2023/07/21 07:20:55;;;;;;;13.48;12.27;;;24.40;99.90;;;;;;5005603;28;20048;-72
2023/07/21 07:23:21;;;;;;;13.02;11.80;;;23.90;99.90;;;;;;5013946;28;20479;-72
2023/07/21 07:25:48;;;;;;;12.60;11.05;;;24.30;99.90;;;;;;5013390;28;20037;-73
2023/07/21 07:28:14;;;;;;;12.35;11.13;;;24.60;1.00;;;;;;5013890;28;20080;-73
2023/07/21 07:30:39;;;;;;;16.50;12.00;;;24.70;99.90;;;;;;5013517;28;20108;-72
2023/07/21 07:33:06;;;;;;;13.40;12.00;;;24.70;1.00;;;;;;5013106;28;20026;-71
2023/07/21 07:35:31;;;;;;;15.60;12.50;;;23.60;1.00;;;;;;5013531;28;20396;-72
2023/07/21 07:37:57;;;;;;;13.80;12.18;;;23.50;99.90;;;;;;5013726;28;20026;-72
2023/07/21 07:40:22;;;;;;;12.88;11.55;;;23.70;38.20;;;;;;5013634;28;20026;-72
2023/07/21 07:42:49;;;;;;;12.50;11.20;;;24.20;1.00;;;;;;5013618;28;20510;-72
2023/07/21 07:45:14;;;;;;;11.93;10.75;;;23.80;1.00;;;;;;5013655;28;20438;-72
2023/07/21 07:47:40;;;;;;;14.13;11.32;;;23.70;99.90;;;;;;5013502;28;20045;-72
2023/07/21 07:50:06;;;;;;;12.75;10.43;;;23.50;99.90;;;;;;5012011;28;20411;-72
2023/07/21 07:52:31;;;;;;;11.65;9.90;;;23.90;99.90;;;;;;5012993;28;20080;-73
2023/07/21 07:54:57;;;;;;;12.80;10.77;;;24.10;99.90;;;;;;5012849;28;20026;-72
2023/07/21 07:57:26;;;;;;;10.00;9.10;;;23.80;1.00;;;;;;5012597;28;20030;-72
2023/07/21 07:59:51;;;;;;;10.27;9.27;;;24.60;99.90;;;;;;5013237;28;20036;-72
2023/07/21 08:02:17;;;;;;;9.48;8.57;;;24.10;1.00;;;;;;5012881;28;20427;-72
2023/07/21 08:04:42;;;;;;;11.45;9.40;;;23.80;99.90;;;;;;5013484;28;20514;-72
2023/07/21 08:07:08;;;;;;;10.52;9.40;;;23.50;1.00;;;;;;5012669;28;20499;-72
2023/07/21 08:09:34;;;;;;;12.43;10.63;;;24.00;54.10;;;;;;5012907;28;20037;-72
2023/07/21 08:11:59;;;;;;;12.15;10.93;;;24.10;1.00;;;;;;5013455;28;20167;-72
2023/07/21 08:14:25;;;;;;;9.88;9.00;;;24.20;99.90;;;;;;5012763;28;20486;-71
2023/07/21 08:16:50;;;;;;;11.32;10.23;;;24.30;99.90;;;;;;5013240;28;20116;-71
2023/07/21 08:19:16;;;;;;;11.25;10.02;;;24.90;99.90;;;;;;5013670;28;20124;-73
2023/07/21 08:21:41;;;;;;;11.38;10.13;;;24.50;99.90;;;;;;5013030;28;20038;-72
2023/07/21 08:24:07;;;;;;;11.05;9.55;;;24.40;99.90;;;;;;5013451;28;20069;-73
2023/07/21 08:26:32;;;;;;;10.40;9.32;;;23.90;99.90;;;;;;5013577;28;20153;-73
2023/07/21 08:28:58;;;;;;;12.77;11.48;;;23.00;99.90;;;;;;5012658;28;20034;-73
2023/07/21 08:31:23;;;;;;;12.48;11.38;;;23.10;9.50;;;;;;5015752;28;20049;-72
2023/07/21 08:33:50;;;;;;;13.32;11.77;;;22.80;99.90;;;;;;5016665;28;20498;-72
2023/07/21 08:36:16;;;;;;;12.27;10.63;;;22.70;99.90;;;;;;5016905;28;20458;-73
2023/07/21 08:38:41;;;;;;;13.57;11.45;;;23.30;1.00;;;;;;5016760;28;20117;-73
2023/07/21 08:41:09;;;;;;;14.90;12.57;;;22.80;99.90;;;;;;5016888;28;20395;-72
2023/07/21 08:43:34;;;;;;;12.05;10.35;;;22.30;99.90;;;;;;5016841;28;20084;-73
2023/07/21 08:46:02;;;;;;;12.35;11.05;;;22.40;99.90;;;;;;5013014;28;20026;-72
2023/07/21 08:48:29;;;;;;;14.63;12.15;;;22.30;99.90;;;;;;5016104;28;20042;-71
2023/07/21 08:50:56;;;;;;;13.77;12.40;;;22.40;99.90;;;;;;5001842;28;20120;-73
2023/07/21 08:53:25;;;;;;;11.25;9.85;;;22.90;69.40;;;;;;4997092;28;20034;-72
2023/07/21 08:55:53;;;;;;;10.95;9.82;;;23.20;1.00;;;;;;4996887;28;20200;-72
2023/07/21 08:58:20;;;;;;;15.02;8.93;;;23.20;99.90;;;;;;4996910;28;20508;-72
2023/07/21 09:00:47;;;;;;;8.40;7.60;;;24.50;99.90;;;;;;4996918;28;20520;-73
2023/07/21 09:03:22;;;;;;;9.13;7.93;;;25.10;1.00;;;;;;5006073;28;20041;-72
2023/07/21 09:05:48;;;;;;;10.77;9.70;;;25.50;1.00;;;;;;5016059;28;20487;-72
2023/07/21 09:08:20;;;;;;;11.88;8.57;;;25.50;1.00;;;;;;5015286;28;20022;-72
2023/07/21 09:10:46;;;;;;;11.38;10.23;;;24.60;1.00;;;;;;5015661;28;20124;-73
2023/07/21 09:13:17;;;;;;;8.77;7.97;;;24.30;37.00;;;;;;5015906;28;20061;-72
2023/07/21 09:15:51;;;;;;;10.68;9.57;;;24.10;71.90;;;;;;5015406;28;20551;-72
2023/07/21 09:18:17;;;;;;;11.50;10.32;;;24.30;99.90;;;;;;5015485;28;20034;-72
2023/07/21 09:20:47;;;;;;;12.07;10.88;;;24.40;1.00;;;;;;5016136;28;20087;-72
2023/07/21 09:23:13;;;;;;;13.02;11.23;;;24.00;1.00;;;;;;5015299;28;20029;-72
2023/07/21 09:25:48;;;;;;;10.70;9.80;;;23.50;99.90;;;;;;5015795;28;20571;-72
2023/07/21 09:28:13;;;;;;;11.68;8.57;;;22.90;99.90;;;;;;5015668;28;20113;-72
2023/07/21 09:30:51;;;;;;;8.77;7.93;;;22.60;99.90;;;;;;5015277;28;20109;-72
2023/07/21 09:33:21;;;;;;;9.00;7.10;;;22.60;1.00;;;;;;5016014;28;20404;-72
2023/07/21 09:35:47;;;;;;;9.43;7.05;;;22.60;99.90;;;;;;5015306;28;20504;-73
2023/07/21 09:38:12;;;;;;;8.57;7.50;;;22.50;99.90;;;;;;5015464;28;20030;-72
2023/07/21 09:40:42;;;;;;;9.82;8.75;;;22.80;1.00;;;;;;5014751;28;20037;-73
2023/07/21 09:43:09;;;;;;;10.32;8.30;;;22.90;99.90;;;;;;5015078;28;20519;-73
2023/07/21 09:45:38;;;;;;;7.40;5.90;;;22.70;99.90;;;;;;5015322;28;20041;-72
2023/07/21 09:48:05;;;;;;;10.38;7.68;;;22.20;1.00;;;;;;5015080;28;20054;-73
2023/07/21 09:50:30;;;;;;;10.93;8.45;;;22.40;99.90;;;;;;5014641;28;20033;-73
2023/07/21 09:52:56;;;;;;;9.27;8.30;;;22.30;99.90;;;;;;5014042;28;20112;-73
2023/07/21 09:55:22;;;;;;;11.63;10.18;;;22.50;99.90;;;;;;5014680;28;20098;-73
2023/07/21 09:57:49;;;;;;;12.02;10.48;;;22.80;99.90;;;;;;5014720;28;20061;-73
2023/07/21 10:00:17;;;;;;;10.65;8.20;;;23.00;99.90;;;;;;5012224;28;20034;-73
2023/07/21 10:02:45;;;;;;;12.80;9.13;;;23.40;99.90;;;;;;5011716;28;20034;-73
2023/07/21 10:05:10;;;;;;;13.25;11.32;;;24.30;1.00;;;;;;5002280;28;20113;-73
2023/07/21 10:07:39;;;;;;;12.85;11.55;;;24.20;1.00;;;;;;5009974;28;20172;-72
2023/07/21 10:10:06;;;;;;;11.35;9.85;;;23.00;1.00;;;;;;5003892;28;20072;-72
2023/07/21 10:12:53;;;;;;;14.05;12.65;;;22.80;99.90;;;;;;4995525;28;20142;-73
2023/07/21 10:15:28;;;;;;;10.25;9.15;;;22.60;99.90;;;;;;5002746;28;20476;-73
2023/07/21 10:17:56;;;;;;;12.18;10.85;;;23.00;99.90;;;;;;5015134;28;20037;-72
2023/07/21 10:20:38;;;;;;;12.32;11.13;;;23.70;1.00;;;;;;5007398;28;20045;-72
2023/07/21 10:23:04;;;;;;;13.38;11.32;;;23.70;1.00;;;;;;5014046;28;20392;-73
2023/07/21 10:25:47;;;;;;;12.90;11.60;;;22.80;1.00;;;;;;5009505;28;20062;-72
2023/07/21 10:28:13;;;;;;;14.13;10.73;;;22.80;1.00;;;;;;5012590;28;20396;-71
2023/07/21 10:30:39;;;;;;;12.98;11.68;;;22.40;1.00;;;;;;5013581;28;20057;-72
2023/07/21 10:33:27;;;;;;;13.52;10.38;;;21.90;99.90;;;;;;5014543;28;20116;-72
2023/07/21 10:36:11;;;;;;;10.10;9.10;;;22.10;99.90;;;;;;5014481;28;20392;-72
2023/07/21 10:38:40;;;;;;;10.43;9.30;;;22.10;99.90;;;;;;5014794;28;20033;-72
2023/07/21 10:41:06;;;;;;;14.20;9.23;;;23.10;99.90;;;;;;5014224;28;20053;-72
2023/07/21 10:43:32;;;;;;;10.20;9.20;;;24.10;20.00;;;;;;5014316;28;20026;-72
2023/07/21 10:45:57;;;;;;;9.60;8.60;;;23.90;1.00;;;;;;5013801;28;20088;-68
2023/07/21 10:48:25;;;;;;;9.15;8.20;;;24.10;1.00;;;;;;5013884;28;20054;-67
2023/07/21 10:50:58;;;;;;;10.65;9.02;;;23.60;1.00;;;;;;5014538;28;20508;-67
2023/07/21 10:53:24;;;;;;;9.10;8.20;;;23.60;1.00;;;;;;5012976;28;20030;-68
2023/07/21 10:55:51;;;;;;;10.27;8.13;;;23.70;1.00;;;;;;5014180;28;20030;-67
2023/07/21 10:58:17;;;;;;;10.73;9.60;;;23.70;99.90;;;;;;5014340;28;20029;-67
2023/07/21 11:00:46;;;;;;;12.43;11.30;;;23.20;99.90;;;;;;5014471;28;20087;-68
2023/07/21 11:03:12;;;;;;;13.90;11.52;;;23.00;1.00;;;;;;5013848;28;20026;-67
2023/07/21 11:05:37;;;;;;;11.43;10.25;;;23.20;1.00;;;;;;5014265;28;20132;-68
2023/07/21 11:08:03;;;;;;;13.10;11.90;;;23.30;1.00;;;;;;5013084;28;20037;-68
2023/07/21 11:10:33;;;;;;;9.40;8.50;;;22.90;1.00;;;;;;5013634;28;20021;-68
2023/07/21 11:12:59;;;;;;;10.98;9.80;;;22.80;1.00;;;;;;5013581;28;20022;-68
2023/07/21 11:15:25;;;;;;;12.98;11.60;;;22.70;1.00;;;;;;5013846;28;20075;-68
2023/07/21 11:17:58;;;;;;;12.30;10.70;;;22.50;1.00;;;;;;5013980;28;20180;-67
2023/07/21 11:20:24;;;;;;;12.10;10.88;;;22.60;1.00;;;;;;5013929;28;20183;-68
2023/07/21 11:22:50;;;;;;;7.93;7.20;;;22.60;1.00;;;;;;5014063;28;20061;-68
2023/07/21 11:25:16;;;;;;;8.63;7.13;;;22.70;1.00;;;;;;5013989;28;20026;-68
2023/07/21 11:27:42;;;;;;;10.55;7.05;;;22.60;1.00;;;;;;5013714;28;20108;-68
2023/07/21 11:30:08;;;;;;;6.10;5.50;;;22.60;1.00;;;;;;5013712;28;20036;-69
2023/07/21 11:32:35;;;;;;;8.27;5.80;;;23.10;1.00;;;;;;5013383;28;20080;-68
2023/07/21 11:35:03;;;;;;;5.80;5.10;;;23.40;99.90;;;;;;5013185;28;20029;-68
2023/07/21 11:37:39;;;;;;;5.97;4.80;;;23.60;1.00;;;;;;5013506;28;20021;-68
2023/07/21 11:40:08;;;;;;;7.55;4.75;;;23.60;99.90;;;;;;5013578;28;20443;-68
2023/07/21 11:42:42;;;;;;;5.43;4.40;;;23.40;1.00;;;;;;5013715;28;20068;-68
2023/07/21 11:45:37;;;;;;;7.25;5.93;;;23.60;1.00;;;;;;5013753;28;20033;-68
2023/07/21 11:48:12;;;;;;;5.82;5.10;;;23.50;99.90;;;;;;5013318;28;20034;-68
2023/07/21 11:50:41;;;;;;;6.25;5.00;;;23.50;99.90;;;;;;5012874;28;20029;-68
2023/07/21 11:53:07;;;;;;;7.13;5.53;;;23.70;99.90;;;;;;5013287;28;20041;-68
2023/07/21 11:55:34;;;;;;;6.95;6.25;;;23.50;99.90;;;;;;5013509;28;20176;-68
2023/07/21 11:57:59;;;;;;;6.65;6.05;;;23.40;99.90;;;;;;5013287;28;20108;-68
2023/07/21 12:00:27;;;;;;;5.68;5.18;;;23.20;99.90;;;;;;5013119;28;20125;-68
2023/07/21 12:02:55;;;;;;;7.85;5.25;;;22.90;99.90;;;;;;5012744;28;20029;-68
2023/07/21 12:05:21;;;;;;;7.05;6.43;;;23.10;1.00;;;;;;5015826;28;20457;-68
2023/07/21 12:07:46;;;;;;;5.55;4.70;;;23.00;99.90;;;;;;5017241;28;20069;-68
2023/07/21 12:10:12;;;;;;;7.85;6.97;;;23.40;1.00;;;;;;5016843;28;20435;-67
2023/07/21 12:12:37;;;;;;;7.70;7.00;;;23.70;1.00;;;;;;5016465;28;20030;-68
2023/07/21 12:15:06;;;;;;;8.18;7.20;;;23.70;1.00;;;;;;5016865;28;20029;-68
2023/07/21 12:17:33;;;;;;;8.38;6.38;;;23.70;1.00;;;;;;5016662;28;20037;-68
2023/07/21 12:19:58;;;;;;;9.45;7.07;;;23.10;1.00;;;;;;5017472;28;20037;-68
2023/07/21 12:22:25;;;;;;;7.68;6.75;;;22.80;1.00;;;;;;5017322;28;20122;-68
2023/07/21 12:24:51;;;;;;;7.80;6.13;;;22.50;99.90;;;;;;5016384;28;20026;-68
2023/07/21 12:27:16;;;;;;;7.70;6.82;;;22.60;99.90;;;;;;5016275;28;20034;-67
2023/07/21 12:29:42;;;;;;;8.25;6.63;;;22.60;99.90;;;;;;5016889;28;20029;-67
2023/07/21 12:32:08;;;;;;;9.73;8.18;;;22.40;99.90;;;;;;5017022;28;20029;-67